This is the latest recevied weather packets stored in our database for station/object 5B4ALR-13. If no packets are shown the sender has not sent any weather packets the latest 10 day(s).
| Time | Temp. | Humidity | Pressure | Rain* | Wind** | Luminosity | Snow |
|---|---|---|---|---|---|---|---|
| 1778137268 | 22.78° C | 46% | 1019.6 hPa | 0 mm | - | - | - |
| 1778136668 | 22.78° C | 48% | 1019.7 hPa | 0 mm | - | - | - |
| 1778136069 | 22.78° C | 46% | 1019.6 hPa | 0 mm | - | - | - |
| 1778135471 | 22.78° C | 46% | 1019.7 hPa | 0 mm | - | - | - |
| 1778134873 | 23.33° C | 43% | 1019.6 hPa | 0 mm | - | - | - |
| 1778134268 | 23.33° C | 40% | 1019.5 hPa | 0 mm | - | - | - |
| 1778133669 | 23.33° C | 42% | 1019.5 hPa | 0 mm | - | - | - |
| 1778133068 | 23.33° C | 43% | 1019.5 hPa | 0 mm | - | - | - |
| 1778132469 | 22.78° C | 43% | 1019.4 hPa | 0 mm | - | - | - |
| 1778131869 | 22.22° C | 44% | 1019.4 hPa | 0 mm | - | - | - |
| 1778131270 | 22.78° C | 45% | 1019.4 hPa | 0 mm | - | - | - |
| 1778130668 | 22.22° C | 49% | 1019.4 hPa | 0 mm | - | - | - |
| 1778130068 | 21.67° C | 50% | 1019.4 hPa | 0 mm | - | - | - |
| 1778129471 | 21.67° C | 52% | 1019.4 hPa | 0 mm | - | - | - |
| 1778128868 | 21.11° C | 54% | 1019.3 hPa | 0 mm | - | - | - |
| 1778128269 | 20° C | 55% | 1019.2 hPa | 0 mm | - | - | - |
| 1778127669 | 20° C | 55% | 1019.2 hPa | 0 mm | - | - | - |
| 1778127068 | 19.44° C | 56% | 1019.1 hPa | 0 mm | - | - | - |
| 1778126468 | 18.89° C | 59% | 1019.1 hPa | 0 mm | - | - | - |
| 1778125868 | 17.78° C | 63% | 1019 hPa | 0 mm | - | - | - |
| 1778125268 | 16.67° C | 65% | 1019 hPa | 0 mm | - | - | - |
| 1778124668 | 15.56° C | 67% | 1018.9 hPa | 0 mm | - | - | - |
| 1778124068 | 14.44° C | 72% | 1018.9 hPa | 0 mm | - | - | - |
| 1778123468 | 14.44° C | 73% | 1018.9 hPa | 0 mm | - | - | - |
| 1778122868 | 14.44° C | 74% | 1018.9 hPa | 0 mm | - | - | - |
* Rain latest hour (hover to see other rain measurements)
** Current wind speed in m/s (hover to see current wind gust speed)